sensor_id;sensor_type;location;lat;lon;timestamp;temperature;humidity
68804;SHT31;55787;52.678;13.314;2023-09-08T00:02:25;14.51;89.89
68804;SHT31;55787;52.678;13.314;2023-09-08T00:04:52;14.46;89.70
68804;SHT31;55787;52.678;13.314;2023-09-08T00:07:20;14.45;89.75
68804;SHT31;55787;52.678;13.314;2023-09-08T00:09:46;14.41;89.60
68804;SHT31;55787;52.678;13.314;2023-09-08T00:12:13;14.41;89.85
68804;SHT31;55787;52.678;13.314;2023-09-08T00:14:40;14.42;89.87
68804;SHT31;55787;52.678;13.314;2023-09-08T00:17:07;14.42;90.18
68804;SHT31;55787;52.678;13.314;2023-09-08T00:36:08;14.37;90.70
68804;SHT31;55787;52.678;13.314;2023-09-08T00:38:35;14.35;90.69
68804;SHT31;55787;52.678;13.314;2023-09-08T00:41:04;14.35;90.87
68804;SHT31;55787;52.678;13.314;2023-09-08T00:43:31;14.32;91.05
68804;SHT31;55787;52.678;13.314;2023-09-08T00:45:58;14.31;91.57
68804;SHT31;55787;52.678;13.314;2023-09-08T00:48:26;14.28;91.57
68804;SHT31;55787;52.678;13.314;2023-09-08T00:50:52;14.24;91.39
68804;SHT31;55787;52.678;13.314;2023-09-08T00:53:19;14.20;91.50
68804;SHT31;55787;52.678;13.314;2023-09-08T00:55:47;14.17;91.73
68804;SHT31;55787;52.678;13.314;2023-09-08T00:58:14;14.14;91.76
68804;SHT31;55787;52.678;13.314;2023-09-08T01:00:41;14.14;92.40
68804;SHT31;55787;52.678;13.314;2023-09-08T01:03:07;14.11;92.11
68804;SHT31;55787;52.678;13.314;2023-09-08T01:05:34;14.06;92.20
68804;SHT31;55787;52.678;13.314;2023-09-08T01:08:02;14.02;92.50
68804;SHT31;55787;52.678;13.314;2023-09-08T01:10:30;14.03;92.61
68804;SHT31;55787;52.678;13.314;2023-09-08T01:12:56;14.00;92.82
68804;SHT31;55787;52.678;13.314;2023-09-08T01:15:23;13.97;92.80
68804;SHT31;55787;52.678;13.314;2023-09-08T01:17:49;13.93;93.17
68804;SHT31;55787;52.678;13.314;2023-09-08T01:20:22;13.91;93.26
68804;SHT31;55787;52.678;13.314;2023-09-08T01:25:29;13.87;93.23
68804;SHT31;55787;52.678;13.314;2023-09-08T01:28:00;13.89;93.50
68804;SHT31;55787;52.678;13.314;2023-09-08T01:30:28;13.90;93.47
68804;SHT31;55787;52.678;13.314;2023-09-08T01:32:56;13.86;93.61
68804;SHT31;55787;52.678;13.314;2023-09-08T01:35:23;13.83;93.51
68804;SHT31;55787;52.678;13.314;2023-09-08T01:37:50;13.82;93.58
68804;SHT31;55787;52.678;13.314;2023-09-08T01:40:17;13.80;93.53
68804;SHT31;55787;52.678;13.314;2023-09-08T01:42:45;13.77;93.53
68804;SHT31;55787;52.678;13.314;2023-09-08T01:45:12;13.76;93.64
68804;SHT31;55787;52.678;13.314;2023-09-08T01:47:38;13.73;93.74
68804;SHT31;55787;52.678;13.314;2023-09-08T01:50:05;13.70;93.69
68804;SHT31;55787;52.678;13.314;2023-09-08T01:52:32;13.69;93.82
68804;SHT31;55787;52.678;13.314;2023-09-08T01:54:59;13.66;93.95
68804;SHT31;55787;52.678;13.314;2023-09-08T01:57:25;13.63;93.87
68804;SHT31;55787;52.678;13.314;2023-09-08T01:59:52;13.62;94.05
68804;SHT31;55787;52.678;13.314;2023-09-08T02:02:19;13.62;94.18
68804;SHT31;55787;52.678;13.314;2023-09-08T02:04:45;13.61;94.28
68804;SHT31;55787;52.678;13.314;2023-09-08T02:07:12;13.59;94.37
68804;SHT31;55787;52.678;13.314;2023-09-08T02:09:38;13.59;94.25
68804;SHT31;55787;52.678;13.314;2023-09-08T02:12:05;13.55;94.34
68804;SHT31;55787;52.678;13.314;2023-09-08T02:14:32;13.58;94.33
68804;SHT31;55787;52.678;13.314;2023-09-08T02:16:59;13.58;94.18
68804;SHT31;55787;52.678;13.314;2023-09-08T02:19:25;13.59;94.02
68804;SHT31;55787;52.678;13.314;2023-09-08T02:21:52;13.55;94.06
68804;SHT31;55787;52.678;13.314;2023-09-08T02:24:19;13.55;94.16
68804;SHT31;55787;52.678;13.314;2023-09-08T02:26:46;13.56;94.32
68804;SHT31;55787;52.678;13.314;2023-09-08T02:29:12;13.51;94.37
68804;SHT31;55787;52.678;13.314;2023-09-08T02:31:39;13.49;94.27
68804;SHT31;55787;52.678;13.314;2023-09-08T02:34:06;13.46;94.33
68804;SHT31;55787;52.678;13.314;2023-09-08T02:36:32;13.45;94.69
68804;SHT31;55787;52.678;13.314;2023-09-08T02:38:59;13.45;94.65
68804;SHT31;55787;52.678;13.314;2023-09-08T02:41:25;13.41;94.54
68804;SHT31;55787;52.678;13.314;2023-09-08T02:43:52;13.36;94.68
68804;SHT31;55787;52.678;13.314;2023-09-08T02:46:19;13.34;94.71
68804;SHT31;55787;52.678;13.314;2023-09-08T02:48:45;13.32;94.78
68804;SHT31;55787;52.678;13.314;2023-09-08T02:51:12;13.31;94.94
68804;SHT31;55787;52.678;13.314;2023-09-08T02:53:38;13.28;94.99
68804;SHT31;55787;52.678;13.314;2023-09-08T02:56:05;13.28;95.18
68804;SHT31;55787;52.678;13.314;2023-09-08T02:58:32;13.25;95.21
68804;SHT31;55787;52.678;13.314;2023-09-08T03:01:15;13.31;95.16
68804;SHT31;55787;52.678;13.314;2023-09-08T03:03:42;13.28;95.09
68804;SHT31;55787;52.678;13.314;2023-09-08T03:06:10;13.26;95.05
68804;SHT31;55787;52.678;13.314;2023-09-08T03:08:37;13.25;95.17
68804;SHT31;55787;52.678;13.314;2023-09-08T03:11:04;13.24;95.53
68804;SHT31;55787;52.678;13.314;2023-09-08T03:13:32;13.24;95.65
68804;SHT31;55787;52.678;13.314;2023-09-08T03:16:04;13.21;95.52
68804;SHT31;55787;52.678;13.314;2023-09-08T03:18:32;13.21;95.68
68804;SHT31;55787;52.678;13.314;2023-09-08T03:21:00;13.16;95.74
68804;SHT31;55787;52.678;13.314;2023-09-08T03:23:39;13.15;95.79
68804;SHT31;55787;52.678;13.314;2023-09-08T03:26:06;13.15;95.66
68804;SHT31;55787;52.678;13.314;2023-09-08T03:28:34;13.08;95.50
68804;SHT31;55787;52.678;13.314;2023-09-08T03:31:01;13.01;95.64
68804;SHT31;55787;52.678;13.314;2023-09-08T03:33:28;12.98;95.46
68804;SHT31;55787;52.678;13.314;2023-09-08T03:35:55;12.91;95.62
68804;SHT31;55787;52.678;13.314;2023-09-08T03:38:22;12.85;95.56
68804;SHT31;55787;52.678;13.314;2023-09-08T03:40:49;12.83;95.75
68804;SHT31;55787;52.678;13.314;2023-09-08T03:43:16;12.81;95.83
68804;SHT31;55787;52.678;13.314;2023-09-08T03:45:42;12.79;95.86
68804;SHT31;55787;52.678;13.314;2023-09-08T03:48:09;12.74;95.89
68804;SHT31;55787;52.678;13.314;2023-09-08T03:50:36;12.70;96.12
68804;SHT31;55787;52.678;13.314;2023-09-08T03:53:03;12.65;96.17
68804;SHT31;55787;52.678;13.314;2023-09-08T03:55:30;12.61;95.98
68804;SHT31;55787;52.678;13.314;2023-09-08T03:57:56;12.59;96.09
68804;SHT31;55787;52.678;13.314;2023-09-08T04:00:23;12.54;96.15
68804;SHT31;55787;52.678;13.314;2023-09-08T04:02:50;12.52;96.23
68804;SHT31;55787;52.678;13.314;2023-09-08T04:05:17;12.52;96.43
68804;SHT31;55787;52.678;13.314;2023-09-08T04:07:47;12.49;96.46
68804;SHT31;55787;52.678;13.314;2023-09-08T04:10:14;12.44;96.39
68804;SHT31;55787;52.678;13.314;2023-09-08T04:12:40;12.40;96.36
68804;SHT31;55787;52.678;13.314;2023-09-08T04:15:08;12.40;96.41
68804;SHT31;55787;52.678;13.314;2023-09-08T04:17:36;12.39;96.47
68804;SHT31;55787;52.678;13.314;2023-09-08T04:20:04;12.36;96.41
68804;SHT31;55787;52.678;13.314;2023-09-08T04:22:34;12.33;96.55
68804;SHT31;55787;52.678;13.314;2023-09-08T04:25:01;12.34;96.63
68804;SHT31;55787;52.678;13.314;2023-09-08T04:27:28;12.33;96.71
68804;SHT31;55787;52.678;13.314;2023-09-08T04:29:54;12.30;96.68
68804;SHT31;55787;52.678;13.314;2023-09-08T04:32:21;12.32;96.66
68804;SHT31;55787;52.678;13.314;2023-09-08T04:34:48;12.32;96.85
68804;SHT31;55787;52.678;13.314;2023-09-08T04:37:16;12.30;96.85
68804;SHT31;55787;52.678;13.314;2023-09-08T04:39:42;12.32;96.83
68804;SHT31;55787;52.678;13.314;2023-09-08T04:42:10;12.30;96.86
68804;SHT31;55787;52.678;13.314;2023-09-08T04:44:37;12.32;96.99
68804;SHT31;55787;52.678;13.314;2023-09-08T04:47:04;12.36;97.17
68804;SHT31;55787;52.678;13.314;2023-09-08T04:49:30;12.37;97.09
68804;SHT31;55787;52.678;13.314;2023-09-08T04:51:57;12.42;97.24
68804;SHT31;55787;52.678;13.314;2023-09-08T04:54:24;12.46;97.53
68804;SHT31;55787;52.678;13.314;2023-09-08T04:56:54;12.52;97.35
68804;SHT31;55787;52.678;13.314;2023-09-08T04:59:37;12.57;97.72
68804;SHT31;55787;52.678;13.314;2023-09-08T05:02:05;12.59;97.47
68804;SHT31;55787;52.678;13.314;2023-09-08T05:04:32;12.76;97.84
68804;SHT31;55787;52.678;13.314;2023-09-08T05:06:58;12.87;97.97
68804;SHT31;55787;52.678;13.314;2023-09-08T05:09:25;13.04;98.01
68804;SHT31;55787;52.678;13.314;2023-09-08T05:11:51;13.10;97.72
68804;SHT31;55787;52.678;13.314;2023-09-08T05:14:18;13.19;97.68
68804;SHT31;55787;52.678;13.314;2023-09-08T05:16:45;13.24;97.41
68804;SHT31;55787;52.678;13.314;2023-09-08T05:19:12;13.39;97.56
68804;SHT31;55787;52.678;13.314;2023-09-08T05:21:39;13.62;97.31
68804;SHT31;55787;52.678;13.314;2023-09-08T05:24:07;13.86;96.23
68804;SHT31;55787;52.678;13.314;2023-09-08T05:26:37;13.99;95.71
68804;SHT31;55787;52.678;13.314;2023-09-08T05:29:04;14.11;95.35
68804;SHT31;55787;52.678;13.314;2023-09-08T05:31:30;14.16;95.06
68804;SHT31;55787;52.678;13.314;2023-09-08T05:33:57;14.23;94.94
68804;SHT31;55787;52.678;13.314;2023-09-08T05:36:23;14.41;94.54
68804;SHT31;55787;52.678;13.314;2023-09-08T05:38:50;14.55;93.99
68804;SHT31;55787;52.678;13.314;2023-09-08T05:41:17;14.79;92.93
68804;SHT31;55787;52.678;13.314;2023-09-08T05:43:44;14.92;92.63
68804;SHT31;55787;52.678;13.314;2023-09-08T05:46:11;15.10;92.12
68804;SHT31;55787;52.678;13.314;2023-09-08T05:48:37;15.29;91.33
68804;SHT31;55787;52.678;13.314;2023-09-08T05:51:04;15.54;89.74
68804;SHT31;55787;52.678;13.314;2023-09-08T05:53:33;15.67;89.82
68804;SHT31;55787;52.678;13.314;2023-09-08T05:55:59;15.84;89.16
68804;SHT31;55787;52.678;13.314;2023-09-08T05:58:26;16.08;88.13
68804;SHT31;55787;52.678;13.314;2023-09-08T06:00:54;16.42;86.63
68804;SHT31;55787;52.678;13.314;2023-09-08T06:03:20;16.94;85.29
68804;SHT31;55787;52.678;13.314;2023-09-08T06:05:47;17.38;83.17
68804;SHT31;55787;52.678;13.314;2023-09-08T06:08:14;18.06;80.54
68804;SHT31;55787;52.678;13.314;2023-09-08T06:10:40;18.71;79.70
68804;SHT31;55787;52.678;13.314;2023-09-08T06:13:07;18.96;78.18
68804;SHT31;55787;52.678;13.314;2023-09-08T06:15:34;19.33;76.49
68804;SHT31;55787;52.678;13.314;2023-09-08T06:18:01;19.54;74.92
68804;SHT31;55787;52.678;13.314;2023-09-08T06:20:27;20.63;73.02
68804;SHT31;55787;52.678;13.314;2023-09-08T06:22:54;21.79;68.35
68804;SHT31;55787;52.678;13.314;2023-09-08T06:25:21;22.75;64.64
68804;SHT31;55787;52.678;13.314;2023-09-08T06:27:47;23.18;63.07
68804;SHT31;55787;52.678;13.314;2023-09-08T06:30:14;23.12;64.87
68804;SHT31;55787;52.678;13.314;2023-09-08T06:32:42;23.36;62.36
68804;SHT31;55787;52.678;13.314;2023-09-08T06:35:09;23.07;62.64
68804;SHT31;55787;52.678;13.314;2023-09-08T06:37:37;22.88;64.10
68804;SHT31;55787;52.678;13.314;2023-09-08T06:40:04;22.58;64.49
68804;SHT31;55787;52.678;13.314;2023-09-08T06:42:31;22.56;65.24
68804;SHT31;55787;52.678;13.314;2023-09-08T06:44:59;22.08;67.12
68804;SHT31;55787;52.678;13.314;2023-09-08T06:47:26;21.31;68.37
68804;SHT31;55787;52.678;13.314;2023-09-08T06:49:53;20.79;70.17
68804;SHT31;55787;52.678;13.314;2023-09-08T06:52:19;20.56;71.18
68804;SHT31;55787;52.678;13.314;2023-09-08T06:54:46;20.90;70.44
68804;SHT31;55787;52.678;13.314;2023-09-08T06:57:13;21.54;68.42
68804;SHT31;55787;52.678;13.314;2023-09-08T06:59:40;22.14;66.55
68804;SHT31;55787;52.678;13.314;2023-09-08T07:02:07;22.13;66.58
68804;SHT31;55787;52.678;13.314;2023-09-08T07:04:34;22.30;66.15
68804;SHT31;55787;52.678;13.314;2023-09-08T07:07:01;22.67;66.57
68804;SHT31;55787;52.678;13.314;2023-09-08T07:09:36;23.88;62.94
68804;SHT31;55787;52.678;13.314;2023-09-08T07:12:04;25.27;57.15
68804;SHT31;55787;52.678;13.314;2023-09-08T07:14:31;26.24;55.41
68804;SHT31;55787;52.678;13.314;2023-09-08T07:16:58;27.18;52.76
68804;SHT31;55787;52.678;13.314;2023-09-08T07:19:26;27.75;50.82
68804;SHT31;55787;52.678;13.314;2023-09-08T07:21:53;27.79;50.74
68804;SHT31;55787;52.678;13.314;2023-09-08T07:24:19;28.14;49.23
68804;SHT31;55787;52.678;13.314;2023-09-08T07:26:46;28.37;49.23
68804;SHT31;55787;52.678;13.314;2023-09-08T07:29:13;28.41;50.22
68804;SHT31;55787;52.678;13.314;2023-09-08T07:31:40;28.24;52.83
68804;SHT31;55787;52.678;13.314;2023-09-08T07:34:06;28.58;49.28
68804;SHT31;55787;52.678;13.314;2023-09-08T07:36:36;28.60;48.39
68804;SHT31;55787;52.678;13.314;2023-09-08T07:39:03;28.43;49.04
68804;SHT31;55787;52.678;13.314;2023-09-08T07:41:30;29.03;48.98
68804;SHT31;55787;52.678;13.314;2023-09-08T07:43:56;29.90;46.46
68804;SHT31;55787;52.678;13.314;2023-09-08T07:46:23;30.62;43.87
68804;SHT31;55787;52.678;13.314;2023-09-08T07:48:50;30.79;46.03
68804;SHT31;55787;52.678;13.314;2023-09-08T07:51:17;30.86;45.00
68804;SHT31;55787;52.678;13.314;2023-09-08T07:53:43;31.38;44.44
68804;SHT31;55787;52.678;13.314;2023-09-08T07:56:10;31.84;42.35
68804;SHT31;55787;52.678;13.314;2023-09-08T07:58:36;32.28;42.24
68804;SHT31;55787;52.678;13.314;2023-09-08T08:01:05;32.73;41.09
68804;SHT31;55787;52.678;13.314;2023-09-08T08:03:32;32.53;41.06
68804;SHT31;55787;52.678;13.314;2023-09-08T08:06:01;32.63;41.15
68804;SHT31;55787;52.678;13.314;2023-09-08T08:08:28;32.91;41.06
68804;SHT31;55787;52.678;13.314;2023-09-08T08:10:55;33.45;40.33
68804;SHT31;55787;52.678;13.314;2023-09-08T08:13:22;33.31;38.98
68804;SHT31;55787;52.678;13.314;2023-09-08T08:15:48;33.92;38.64
68804;SHT31;55787;52.678;13.314;2023-09-08T08:18:16;33.80;39.13
68804;SHT31;55787;52.678;13.314;2023-09-08T08:20:43;33.49;38.90
68804;SHT31;55787;52.678;13.314;2023-09-08T08:23:10;34.19;38.02
68804;SHT31;55787;52.678;13.314;2023-09-08T08:25:37;33.82;39.55
68804;SHT31;55787;52.678;13.314;2023-09-08T08:28:03;34.65;37.40
68804;SHT31;55787;52.678;13.314;2023-09-08T08:30:30;34.78;38.46
68804;SHT31;55787;52.678;13.314;2023-09-08T08:32:57;35.32;36.48
68804;SHT31;55787;52.678;13.314;2023-09-08T08:35:23;34.99;38.52
68804;SHT31;55787;52.678;13.314;2023-09-08T08:37:51;35.77;36.39
68804;SHT31;55787;52.678;13.314;2023-09-08T08:40:18;35.80;35.76
68804;SHT31;55787;52.678;13.314;2023-09-08T08:42:44;36.05;35.49
68804;SHT31;55787;52.678;13.314;2023-09-08T08:45:11;36.07;35.91
68804;SHT31;55787;52.678;13.314;2023-09-08T08:47:39;36.33;34.93
68804;SHT31;55787;52.678;13.314;2023-09-08T08:50:07;36.34;34.82
68804;SHT31;55787;52.678;13.314;2023-09-08T08:52:37;36.81;34.64
68804;SHT31;55787;52.678;13.314;2023-09-08T08:55:04;36.60;34.67
68804;SHT31;55787;52.678;13.314;2023-09-08T08:57:32;36.85;33.92
68804;SHT31;55787;52.678;13.314;2023-09-08T08:59:59;37.36;33.13
68804;SHT31;55787;52.678;13.314;2023-09-08T09:02:28;37.44;32.80
68804;SHT31;55787;52.678;13.314;2023-09-08T09:04:55;37.63;32.40
68804;SHT31;55787;52.678;13.314;2023-09-08T09:07:22;37.59;32.26
68804;SHT31;55787;52.678;13.314;2023-09-08T09:09:51;37.49;33.91
68804;SHT31;55787;52.678;13.314;2023-09-08T09:12:18;38.11;32.22
68804;SHT31;55787;52.678;13.314;2023-09-08T09:14:46;37.74;34.34
68804;SHT31;55787;52.678;13.314;2023-09-08T09:17:16;38.45;33.59
68804;SHT31;55787;52.678;13.314;2023-09-08T09:19:43;38.97;31.79
68804;SHT31;55787;52.678;13.314;2023-09-08T09:22:10;38.96;30.42
68804;SHT31;55787;52.678;13.314;2023-09-08T09:24:39;38.33;31.62
68804;SHT31;55787;52.678;13.314;2023-09-08T09:27:13;38.70;31.83
68804;SHT31;55787;52.678;13.314;2023-09-08T09:29:47;38.70;32.67
68804;SHT31;55787;52.678;13.314;2023-09-08T09:32:16;39.24;30.97
68804;SHT31;55787;52.678;13.314;2023-09-08T09:34:50;38.96;30.94
68804;SHT31;55787;52.678;13.314;2023-09-08T09:37:18;38.73;31.44
68804;SHT31;55787;52.678;13.314;2023-09-08T09:39:52;38.99;30.99
68804;SHT31;55787;52.678;13.314;2023-09-08T09:42:20;39.10;32.21
68804;SHT31;55787;52.678;13.314;2023-09-08T09:44:48;39.67;31.20
68804;SHT31;55787;52.678;13.314;2023-09-08T09:47:16;39.58;31.55
68804;SHT31;55787;52.678;13.314;2023-09-08T09:49:43;39.58;30.22
68804;SHT31;55787;52.678;13.314;2023-09-08T09:52:19;39.07;31.02
68804;SHT31;55787;52.678;13.314;2023-09-08T09:54:47;39.50;30.76
68804;SHT31;55787;52.678;13.314;2023-09-08T09:57:20;39.71;29.68
68804;SHT31;55787;52.678;13.314;2023-09-08T09:59:48;39.88;28.78
68804;SHT31;55787;52.678;13.314;2023-09-08T10:02:18;39.28;29.82
68804;SHT31;55787;52.678;13.314;2023-09-08T10:04:49;39.30;29.54
68804;SHT31;55787;52.678;13.314;2023-09-08T10:07:17;39.21;29.93
68804;SHT31;55787;52.678;13.314;2023-09-08T10:09:44;39.95;29.41
68804;SHT31;55787;52.678;13.314;2023-09-08T10:12:13;39.95;29.02
68804;SHT31;55787;52.678;13.314;2023-09-08T10:14:42;40.22;28.74
68804;SHT31;55787;52.678;13.314;2023-09-08T10:17:15;40.59;29.93
68804;SHT31;55787;52.678;13.314;2023-09-08T10:19:45;40.88;28.15
68804;SHT31;55787;52.678;13.314;2023-09-08T10:22:20;40.90;28.19
68804;SHT31;55787;52.678;13.314;2023-09-08T10:24:49;39.77;31.67
68804;SHT31;55787;52.678;13.314;2023-09-08T10:27:17;40.13;29.98
68804;SHT31;55787;52.678;13.314;2023-09-08T10:29:47;40.06;31.63
68804;SHT31;55787;52.678;13.314;2023-09-08T10:32:14;39.27;30.43
68804;SHT31;55787;52.678;13.314;2023-09-08T10:34:42;40.25;30.36
68804;SHT31;55787;52.678;13.314;2023-09-08T10:37:25;41.00;28.57
68804;SHT31;55787;52.678;13.314;2023-09-08T10:39:52;40.08;29.54
68804;SHT31;55787;52.678;13.314;2023-09-08T10:47:23;40.88;28.75
68804;SHT31;55787;52.678;13.314;2023-09-08T10:49:51;40.84;29.70
68804;SHT31;55787;52.678;13.314;2023-09-08T10:52:24;40.39;30.22
68804;SHT31;55787;52.678;13.314;2023-09-08T10:54:52;40.93;29.31
68804;SHT31;55787;52.678;13.314;2023-09-08T10:57:24;41.30;28.60
68804;SHT31;55787;52.678;13.314;2023-09-08T10:59:55;41.37;28.73
68804;SHT31;55787;52.678;13.314;2023-09-08T11:02:49;41.04;29.03
68804;SHT31;55787;52.678;13.314;2023-09-08T11:05:21;41.30;28.78
68804;SHT31;55787;52.678;13.314;2023-09-08T11:07:48;40.29;30.41
68804;SHT31;55787;52.678;13.314;2023-09-08T11:10:19;40.79;27.99
68804;SHT31;55787;52.678;13.314;2023-09-08T11:12:46;40.16;28.94
68804;SHT31;55787;52.678;13.314;2023-09-08T11:15:15;38.78;29.64
68804;SHT31;55787;52.678;13.314;2023-09-08T11:17:41;40.55;29.70
68804;SHT31;55787;52.678;13.314;2023-09-08T11:20:09;40.94;27.76
68804;SHT31;55787;52.678;13.314;2023-09-08T11:22:38;40.98;28.25
68804;SHT31;55787;52.678;13.314;2023-09-08T11:25:07;41.27;28.04
68804;SHT31;55787;52.678;13.314;2023-09-08T11:27:34;40.94;28.56
68804;SHT31;55787;52.678;13.314;2023-09-08T11:30:01;41.13;28.36
68804;SHT31;55787;52.678;13.314;2023-09-08T11:32:32;39.94;29.98
68804;SHT31;55787;52.678;13.314;2023-09-08T11:35:06;41.20;27.04
68804;SHT31;55787;52.678;13.314;2023-09-08T11:37:40;41.15;29.04
68804;SHT31;55787;52.678;13.314;2023-09-08T11:40:09;41.04;28.22
68804;SHT31;55787;52.678;13.314;2023-09-08T11:42:41;41.07;27.90
68804;SHT31;55787;52.678;13.314;2023-09-08T11:47:42;41.03;29.79
68804;SHT31;55787;52.678;13.314;2023-09-08T11:50:10;41.14;27.41
68804;SHT31;55787;52.678;13.314;2023-09-08T11:52:45;40.98;29.00
68804;SHT31;55787;52.678;13.314;2023-09-08T11:55:13;40.90;27.37
68804;SHT31;55787;52.678;13.314;2023-09-08T11:57:41;40.84;27.60
68804;SHT31;55787;52.678;13.314;2023-09-08T12:00:09;41.34;26.62
68804;SHT31;55787;52.678;13.314;2023-09-08T12:02:38;41.08;26.64
68804;SHT31;55787;52.678;13.314;2023-09-08T12:05:05;40.63;27.34
68804;SHT31;55787;52.678;13.314;2023-09-08T12:07:37;41.18;26.98
68804;SHT31;55787;52.678;13.314;2023-09-08T12:10:10;40.62;27.53
68804;SHT31;55787;52.678;13.314;2023-09-08T12:12:50;40.22;30.17
68804;SHT31;55787;52.678;13.314;2023-09-08T12:18:03;40.80;26.69
68804;SHT31;55787;52.678;13.314;2023-09-08T12:20:30;40.13;27.83
68804;SHT31;55787;52.678;13.314;2023-09-08T12:23:00;40.35;26.30
68804;SHT31;55787;52.678;13.314;2023-09-08T12:25:28;40.43;26.35
68804;SHT31;55787;52.678;13.314;2023-09-08T12:27:55;38.18;29.18
68804;SHT31;55787;52.678;13.314;2023-09-08T12:30:23;37.08;30.09
68804;SHT31;55787;52.678;13.314;2023-09-08T12:32:57;38.72;28.77
68804;SHT31;55787;52.678;13.314;2023-09-08T12:35:26;39.38;29.13
68804;SHT31;55787;52.678;13.314;2023-09-08T12:38:03;39.38;30.34
68804;SHT31;55787;52.678;13.314;2023-09-08T12:40:33;39.28;27.43
68804;SHT31;55787;52.678;13.314;2023-09-08T12:43:00;39.74;28.29
68804;SHT31;55787;52.678;13.314;2023-09-08T12:45:33;40.11;29.35
68804;SHT31;55787;52.678;13.314;2023-09-08T12:48:01;39.85;28.27
68804;SHT31;55787;52.678;13.314;2023-09-08T12:50:30;39.92;27.88
68804;SHT31;55787;52.678;13.314;2023-09-08T12:52:57;39.46;30.53
68804;SHT31;55787;52.678;13.314;2023-09-08T12:55:24;38.72;28.82
68804;SHT31;55787;52.678;13.314;2023-09-08T12:57:51;38.72;29.47
68804;SHT31;55787;52.678;13.314;2023-09-08T13:00:23;38.93;32.06
68804;SHT31;55787;52.678;13.314;2023-09-08T13:02:51;38.75;29.99
68804;SHT31;55787;52.678;13.314;2023-09-08T13:05:18;38.96;28.28
68804;SHT31;55787;52.678;13.314;2023-09-08T13:07:45;38.44;29.03
68804;SHT31;55787;52.678;13.314;2023-09-08T13:10:12;38.65;29.17
68804;SHT31;55787;52.678;13.314;2023-09-08T13:12:39;38.33;31.79
68804;SHT31;55787;52.678;13.314;2023-09-08T13:15:06;38.73;29.23
68804;SHT31;55787;52.678;13.314;2023-09-08T13:17:33;37.51;31.56
68804;SHT31;55787;52.678;13.314;2023-09-08T13:19:59;37.57;29.85
68804;SHT31;55787;52.678;13.314;2023-09-08T13:22:26;37.76;32.90
68804;SHT31;55787;52.678;13.314;2023-09-08T13:24:52;37.95;30.62
68804;SHT31;55787;52.678;13.314;2023-09-08T13:27:19;37.94;32.64
68804;SHT31;55787;52.678;13.314;2023-09-08T13:29:46;38.35;30.48
68804;SHT31;55787;52.678;13.314;2023-09-08T13:32:12;37.76;30.59
68804;SHT31;55787;52.678;13.314;2023-09-08T13:34:39;37.81;31.72
68804;SHT31;55787;52.678;13.314;2023-09-08T13:37:06;37.67;31.75
68804;SHT31;55787;52.678;13.314;2023-09-08T13:39:33;37.69;30.91
68804;SHT31;55787;52.678;13.314;2023-09-08T13:42:00;37.82;30.08
68804;SHT31;55787;52.678;13.314;2023-09-08T13:44:28;37.82;30.07
68804;SHT31;55787;52.678;13.314;2023-09-08T13:46:55;37.56;30.14
68804;SHT31;55787;52.678;13.314;2023-09-08T13:49:22;37.36;29.46
68804;SHT31;55787;52.678;13.314;2023-09-08T13:51:52;36.98;30.63
68804;SHT31;55787;52.678;13.314;2023-09-08T13:54:23;37.11;30.21
68804;SHT31;55787;52.678;13.314;2023-09-08T13:56:59;37.19;32.19
68804;SHT31;55787;52.678;13.314;2023-09-08T13:59:34;36.98;31.72
68804;SHT31;55787;52.678;13.314;2023-09-08T14:02:02;37.06;30.88
68804;SHT31;55787;52.678;13.314;2023-09-08T14:04:50;36.47;34.20
68804;SHT31;55787;52.678;13.314;2023-09-08T14:07:19;36.88;30.90
68804;SHT31;55787;52.678;13.314;2023-09-08T14:09:53;36.40;30.81
68804;SHT31;55787;52.678;13.314;2023-09-08T14:12:31;36.45;32.27
68804;SHT31;55787;52.678;13.314;2023-09-08T14:15:01;36.20;31.45
68804;SHT31;55787;52.678;13.314;2023-09-08T14:17:28;36.43;30.64
68804;SHT31;55787;52.678;13.314;2023-09-08T14:19:55;36.24;32.37
68804;SHT31;55787;52.678;13.314;2023-09-08T14:22:22;35.79;33.53
68804;SHT31;55787;52.678;13.314;2023-09-08T14:24:48;35.79;34.35
68804;SHT31;55787;52.678;13.314;2023-09-08T14:27:15;35.76;34.77
68804;SHT31;55787;52.678;13.314;2023-09-08T14:29:41;35.63;35.10
68804;SHT31;55787;52.678;13.314;2023-09-08T14:32:08;35.38;36.62
68804;SHT31;55787;52.678;13.314;2023-09-08T14:34:35;35.21;34.31
68804;SHT31;55787;52.678;13.314;2023-09-08T14:37:01;35.14;34.95
68804;SHT31;55787;52.678;13.314;2023-09-08T14:39:31;34.81;36.72
68804;SHT31;55787;52.678;13.314;2023-09-08T14:41:57;34.56;37.62
68804;SHT31;55787;52.678;13.314;2023-09-08T14:44:24;34.36;36.59
68804;SHT31;55787;52.678;13.314;2023-09-08T14:46:51;34.50;37.09
68804;SHT31;55787;52.678;13.314;2023-09-08T14:49:18;34.36;37.74
68804;SHT31;55787;52.678;13.314;2023-09-08T14:51:44;34.13;35.00
68804;SHT31;55787;52.678;13.314;2023-09-08T14:54:12;33.79;35.73
68804;SHT31;55787;52.678;13.314;2023-09-08T14:56:38;33.22;36.95
68804;SHT31;55787;52.678;13.314;2023-09-08T14:59:05;32.76;36.00
68804;SHT31;55787;52.678;13.314;2023-09-08T15:01:31;32.36;37.35
68804;SHT31;55787;52.678;13.314;2023-09-08T15:03:58;32.04;37.08
68804;SHT31;55787;52.678;13.314;2023-09-08T15:06:25;31.81;38.41
68804;SHT31;55787;52.678;13.314;2023-09-08T15:08:54;31.48;38.53
68804;SHT31;55787;52.678;13.314;2023-09-08T15:11:20;31.47;38.43
68804;SHT31;55787;52.678;13.314;2023-09-08T15:13:47;31.26;39.84
68804;SHT31;55787;52.678;13.314;2023-09-08T15:16:14;30.96;43.63
68804;SHT31;55787;52.678;13.314;2023-09-08T15:18:41;31.14;38.77
68804;SHT31;55787;52.678;13.314;2023-09-08T15:21:08;31.24;40.90
68804;SHT31;55787;52.678;13.314;2023-09-08T15:23:34;31.50;38.29
68804;SHT31;55787;52.678;13.314;2023-09-08T15:26:02;31.67;38.67
68804;SHT31;55787;52.678;13.314;2023-09-08T15:28:29;31.64;40.44
68804;SHT31;55787;52.678;13.314;2023-09-08T15:30:55;31.44;38.10
68804;SHT31;55787;52.678;13.314;2023-09-08T15:33:22;31.24;40.23
68804;SHT31;55787;52.678;13.314;2023-09-08T15:35:52;31.04;38.94
68804;SHT31;55787;52.678;13.314;2023-09-08T15:38:21;30.83;40.29
68804;SHT31;55787;52.678;13.314;2023-09-08T15:43:36;30.62;40.51
68804;SHT31;55787;52.678;13.314;2023-09-08T15:46:04;30.53;40.36
68804;SHT31;55787;52.678;13.314;2023-09-08T15:48:33;30.48;40.20
68804;SHT31;55787;52.678;13.314;2023-09-08T15:51:00;30.56;40.87
68804;SHT31;55787;52.678;13.314;2023-09-08T15:53:27;30.48;39.25